createdAt,value
2022-11-17T00:01:22.241Z,14.40
2022-11-17T00:03:49.849Z,14.60
2022-11-17T00:06:17.854Z,15.93
2022-11-17T00:08:44.656Z,17.67
2022-11-17T00:11:11.273Z,14.50
2022-11-17T00:13:56.242Z,15.43
2022-11-17T00:16:22.932Z,18.10
2022-11-17T00:19:08.451Z,16.90
2022-11-17T00:21:35.112Z,15.63
2022-11-17T00:24:01.943Z,17.55
2022-11-17T00:26:30.704Z,15.20
2022-11-17T00:29:06.380Z,16.13
2022-11-17T00:31:52.880Z,19.65
2022-11-17T00:34:23.547Z,13.90
2022-11-17T00:36:52.646Z,16.25
2022-11-17T00:39:21.308Z,15.18
2022-11-17T00:41:48.199Z,14.43
2022-11-17T00:44:15.452Z,16.00
2022-11-17T00:46:43.052Z,13.77
2022-11-17T00:49:11.086Z,15.00
2022-11-17T00:51:38.282Z,15.52
2022-11-17T00:54:06.156Z,15.40
2022-11-17T00:56:32.987Z,14.55
2022-11-17T00:59:00.211Z,14.63
2022-11-17T01:01:27.213Z,14.18
2022-11-17T01:04:03.493Z,14.90
2022-11-17T01:06:36.501Z,14.23
2022-11-17T01:09:24.176Z,14.70
2022-11-17T01:11:52.333Z,13.15
2022-11-17T01:14:22.263Z,13.60
2022-11-17T01:16:49.523Z,15.73
2022-11-17T01:19:16.928Z,14.30
2022-11-17T01:21:44.109Z,13.45
2022-11-17T01:24:11.873Z,14.45
2022-11-17T01:26:39.566Z,12.40
2022-11-17T01:29:07.743Z,13.07
2022-11-17T01:31:43.470Z,12.50
2022-11-17T01:34:10.702Z,12.23
2022-11-17T01:36:58.464Z,12.55
2022-11-17T01:39:26.782Z,13.20
2022-11-17T01:41:54.163Z,12.43
2022-11-17T01:44:54.643Z,12.82
2022-11-17T01:47:26.111Z,13.20
2022-11-17T01:49:59.056Z,12.55
2022-11-17T01:52:28.537Z,12.20
2022-11-17T01:54:56.817Z,11.70
2022-11-17T01:57:46.668Z,14.30
2022-11-17T02:00:14.190Z,13.13
2022-11-17T02:02:41.978Z,12.05
2022-11-17T02:05:14.416Z,12.48
2022-11-17T02:07:43.056Z,13.00
2022-11-17T02:10:09.714Z,14.60
2022-11-17T02:12:37.022Z,13.10
2022-11-17T02:15:04.977Z,14.45
2022-11-17T02:17:42.362Z,12.07
2022-11-17T02:20:20.243Z,14.13
2022-11-17T02:23:43.494Z,12.70
2022-11-17T02:26:47.764Z,13.15
2022-11-17T02:29:40.473Z,13.13
2022-11-17T02:32:16.318Z,11.38
2022-11-17T02:34:58.547Z,14.27
2022-11-17T02:37:55.335Z,12.68
2022-11-17T02:40:31.057Z,13.25
2022-11-17T02:43:19.562Z,12.98
2022-11-17T02:45:56.788Z,13.07
2022-11-17T02:48:30.919Z,14.10
2022-11-17T02:50:58.212Z,12.13
2022-11-17T02:53:27.111Z,12.13
2022-11-17T02:55:54.116Z,12.68
2022-11-17T02:58:21.622Z,13.50
2022-11-17T03:01:02.931Z,16.20
2022-11-17T03:03:38.652Z,13.50
2022-11-17T03:06:37.432Z,13.20
2022-11-17T03:09:19.804Z,14.52
2022-11-17T03:11:59.315Z,14.75
2022-11-17T03:14:35.287Z,12.90
2022-11-17T03:17:04.613Z,14.93
2022-11-17T03:19:41.413Z,14.50
2022-11-17T03:22:16.097Z,14.63
2022-11-17T03:24:49.389Z,13.23
2022-11-17T03:27:27.719Z,11.82
2022-11-17T03:29:58.505Z,12.15
2022-11-17T03:32:27.459Z,13.68
2022-11-17T03:35:03.074Z,13.25
2022-11-17T03:37:34.362Z,13.88
2022-11-17T03:40:07.290Z,13.60
2022-11-17T03:42:36.422Z,14.18
2022-11-17T03:45:11.838Z,13.23
2022-11-17T03:47:39.560Z,13.52
2022-11-17T03:50:09.920Z,14.93
2022-11-17T03:52:38.033Z,14.65
2022-11-17T03:55:05.943Z,13.50
2022-11-17T03:57:46.088Z,13.73
2022-11-17T04:00:15.757Z,17.73
2022-11-17T04:02:47.947Z,14.52
2022-11-17T04:05:16.601Z,13.77
2022-11-17T04:07:47.797Z,14.90
2022-11-17T04:10:19.948Z,13.80
2022-11-17T04:13:06.550Z,15.32
2022-11-17T04:15:52.058Z,13.63
2022-11-17T04:18:19.496Z,16.55
2022-11-17T04:20:49.226Z,15.77
2022-11-17T04:23:16.192Z,14.20
2022-11-17T04:26:09.688Z,15.52
2022-11-17T04:29:07.158Z,14.57
2022-11-17T04:31:33.948Z,18.23
2022-11-17T04:34:03.108Z,13.85
2022-11-17T04:36:32.679Z,15.82
2022-11-17T04:39:00.304Z,15.68
2022-11-17T04:41:47.705Z,17.45
2022-11-17T04:44:16.481Z,15.80
2022-11-17T04:46:44.612Z,15.27
2022-11-17T04:49:11.637Z,16.35
2022-11-17T04:51:38.985Z,17.52
2022-11-17T04:54:07.644Z,15.57
2022-11-17T04:56:34.911Z,17.42
2022-11-17T04:59:01.683Z,16.38
2022-11-17T05:01:28.478Z,14.55
2022-11-17T05:04:00.293Z,17.27
2022-11-17T05:06:32.842Z,17.70
2022-11-17T05:09:01.791Z,15.32
2022-11-17T05:11:48.539Z,15.05
2022-11-17T05:14:17.270Z,14.52
2022-11-17T05:17:08.652Z,17.23
2022-11-17T05:19:42.399Z,17.30
2022-11-17T05:22:28.792Z,15.50
2022-11-17T05:24:55.690Z,17.73
2022-11-17T05:27:23.862Z,16.23
2022-11-17T05:29:50.540Z,18.25
2022-11-17T05:32:17.438Z,17.98
2022-11-17T05:34:44.092Z,17.70
2022-11-17T05:37:10.728Z,23.38
2022-11-17T05:39:37.383Z,20.70
2022-11-17T05:42:04.316Z,18.63
2022-11-17T05:44:31.031Z,17.38
2022-11-17T05:46:57.918Z,18.13
2022-11-17T05:49:24.567Z,17.48
2022-11-17T05:51:52.910Z,16.75
2022-11-17T05:54:20.075Z,17.38
2022-11-17T05:56:52.176Z,17.92
2022-11-17T05:59:28.240Z,20.35
2022-11-17T06:02:06.779Z,17.63
2022-11-17T06:04:34.389Z,19.10
2022-11-17T06:07:01.606Z,16.98
2022-11-17T06:09:32.656Z,17.42
2022-11-17T06:12:04.352Z,17.58
2022-11-17T06:14:33.636Z,16.55
2022-11-17T06:17:04.479Z,15.85
2022-11-17T06:19:38.113Z,17.75
2022-11-17T06:22:12.321Z,16.50
2022-11-17T06:24:40.889Z,16.42
2022-11-17T06:27:07.722Z,16.92
2022-11-17T06:29:38.213Z,16.73
2022-11-17T06:32:07.600Z,16.90
2022-11-17T06:34:35.002Z,17.23
2022-11-17T06:37:01.591Z,16.83
2022-11-17T06:39:28.180Z,18.88
2022-11-17T06:41:54.768Z,18.20
2022-11-17T06:44:21.408Z,17.20
2022-11-17T06:46:49.364Z,15.88
2022-11-17T06:49:16.255Z,16.98
2022-11-17T06:51:45.414Z,20.48
2022-11-17T06:54:14.491Z,16.20
2022-11-17T06:56:41.538Z,15.30
2022-11-17T06:59:08.276Z,15.07
2022-11-17T07:01:34.967Z,14.68
2022-11-17T07:04:01.633Z,20.00
2022-11-17T07:06:28.287Z,17.55
2022-11-17T07:08:54.934Z,15.88
2022-11-17T07:11:21.557Z,15.93
2022-11-17T07:13:48.158Z,18.33
2022-11-17T07:16:22.952Z,14.15
2022-11-17T07:18:50.883Z,14.07
2022-11-17T07:21:18.032Z,15.32
2022-11-17T07:23:45.676Z,16.25
2022-11-17T07:26:12.494Z,14.88
2022-11-17T07:28:39.343Z,14.90
2022-11-17T07:31:08.268Z,14.68
2022-11-17T07:33:35.784Z,15.40
2022-11-17T07:36:07.752Z,15.32
2022-11-17T07:38:35.686Z,15.73
2022-11-17T07:41:04.101Z,18.88
2022-11-17T07:43:31.201Z,18.08
2022-11-17T07:45:57.927Z,16.48
2022-11-17T07:48:24.741Z,18.38
2022-11-17T07:50:51.612Z,18.35
2022-11-17T07:53:18.261Z,15.85
2022-11-17T07:55:44.957Z,16.83
2022-11-17T07:58:11.780Z,15.38
2022-11-17T08:00:38.451Z,18.92
2022-11-17T08:03:05.531Z,16.38
2022-11-17T08:05:41.606Z,16.35
2022-11-17T08:08:10.161Z,15.95
2022-11-17T08:10:36.918Z,16.85
2022-11-17T08:13:03.672Z,16.77
2022-11-17T08:15:31.145Z,17.83
2022-11-17T08:18:00.243Z,18.52
2022-11-17T08:20:29.239Z,18.27
2022-11-17T08:22:56.540Z,17.90
2022-11-17T08:25:25.148Z,19.90
2022-11-17T08:27:55.549Z,18.08
2022-11-17T08:30:22.771Z,18.42
2022-11-17T08:32:52.041Z,16.77
2022-11-17T08:35:20.470Z,20.75
2022-11-17T08:37:47.301Z,20.90
2022-11-17T08:40:15.092Z,17.25
2022-11-17T08:42:41.849Z,17.88
2022-11-17T08:45:09.171Z,19.20
2022-11-17T08:47:35.898Z,18.90
2022-11-17T08:50:03.713Z,19.80
2022-11-17T08:52:30.626Z,17.52
2022-11-17T08:54:57.379Z,22.50
2022-11-17T08:57:24.208Z,18.80
2022-11-17T08:59:50.971Z,24.15
2022-11-17T09:02:17.875Z,18.15
2022-11-17T09:04:46.137Z,20.13
2022-11-17T09:07:12.925Z,18.13
2022-11-17T09:09:39.859Z,21.10
2022-11-17T09:12:06.825Z,18.48
2022-11-17T09:14:33.859Z,20.25
2022-11-17T09:17:00.580Z,16.17
2022-11-17T09:19:27.317Z,26.25
2022-11-17T09:21:54.004Z,17.95
2022-11-17T09:24:20.680Z,18.63
2022-11-17T09:26:47.297Z,18.15
2022-11-17T09:29:14.280Z,18.55
2022-11-17T09:31:41.210Z,18.92
2022-11-17T09:34:08.123Z,20.88
2022-11-17T09:36:34.987Z,19.38
2022-11-17T09:39:01.652Z,21.42
2022-11-17T09:41:43.368Z,16.20
2022-11-17T09:44:31.578Z,19.65
2022-11-17T09:47:14.189Z,19.67
2022-11-17T09:49:53.627Z,17.10
2022-11-17T09:52:58.306Z,18.73
2022-11-17T09:55:46.082Z,21.10
2022-11-17T09:58:19.738Z,17.55
2022-11-17T10:00:48.911Z,17.85
2022-11-17T10:03:21.531Z,17.20
2022-11-17T10:05:48.849Z,17.02
2022-11-17T10:08:20.659Z,19.02
2022-11-17T10:10:49.983Z,17.10
2022-11-17T10:13:33.587Z,17.95
2022-11-17T10:16:12.085Z,17.73
2022-11-17T10:18:39.557Z,17.42
2022-11-17T10:21:08.191Z,18.52
2022-11-17T10:23:47.024Z,17.55
2022-11-17T10:26:15.394Z,17.67
2022-11-17T10:28:42.209Z,16.95
2022-11-17T10:31:17.507Z,15.77
2022-11-17T10:33:49.471Z,17.75
2022-11-17T10:36:27.170Z,15.43
2022-11-17T10:38:55.871Z,13.77
2022-11-17T10:41:37.412Z,17.00
2022-11-17T10:44:11.906Z,17.00
2022-11-17T10:47:32.838Z,15.57
2022-11-17T10:50:20.762Z,14.43
2022-11-17T10:52:48.080Z,18.13
2022-11-17T10:55:19.145Z,15.15
2022-11-17T10:57:49.948Z,15.63
2022-11-17T11:00:31.780Z,18.60
2022-11-17T11:03:05.940Z,18.02
2022-11-17T11:05:32.934Z,16.15
2022-11-17T11:08:18.293Z,16.10
2022-11-17T11:10:48.972Z,17.85
2022-11-17T11:13:34.166Z,16.02
2022-11-17T11:16:00.855Z,16.27
2022-11-17T11:18:30.219Z,17.25
2022-11-17T11:21:22.484Z,14.02
2022-11-17T11:24:21.753Z,16.25
2022-11-17T11:27:07.881Z,17.47
2022-11-17T11:29:56.491Z,14.40
2022-11-17T11:32:40.099Z,15.18
2022-11-17T11:35:33.314Z,16.20
2022-11-17T11:38:18.697Z,14.23
2022-11-17T11:41:23.085Z,15.45
2022-11-17T11:44:01.733Z,14.02
2022-11-17T11:47:06.878Z,13.43
2022-11-17T11:49:49.071Z,16.35
2022-11-17T11:52:20.720Z,16.25
2022-11-17T11:55:05.304Z,14.73
2022-11-17T11:57:46.773Z,12.80
2022-11-17T12:00:17.848Z,15.63
2022-11-17T12:02:58.487Z,14.05
2022-11-17T12:05:47.957Z,15.43
2022-11-17T12:08:23.620Z,14.75
2022-11-17T12:11:00.476Z,14.98
2022-11-17T12:13:27.707Z,14.50
2022-11-17T12:16:27.538Z,14.23
2022-11-17T12:18:54.185Z,16.23
2022-11-17T12:21:25.705Z,14.63
2022-11-17T12:24:14.873Z,15.63
2022-11-17T12:26:41.842Z,14.25
2022-11-17T12:29:20.448Z,15.65
2022-11-17T12:31:48.995Z,16.50
2022-11-17T12:34:22.988Z,15.05
2022-11-17T12:37:18.662Z,13.75
2022-11-17T12:40:03.191Z,14.85
2022-11-17T12:42:32.083Z,14.90
2022-11-17T12:45:00.762Z,13.93
2022-11-17T12:47:36.354Z,17.88
2022-11-17T12:50:19.444Z,15.15
2022-11-17T12:53:01.045Z,15.57
2022-11-17T12:55:44.527Z,16.73
2022-11-17T12:58:35.538Z,14.68
2022-11-17T13:01:33.033Z,12.68
2022-11-17T13:04:06.461Z,13.55
2022-11-17T13:06:35.838Z,14.02
2022-11-17T13:09:06.829Z,14.73
2022-11-17T13:11:34.475Z,14.18
2022-11-17T13:14:13.517Z,15.10
2022-11-17T13:16:51.533Z,13.17
2022-11-17T13:19:33.144Z,15.43
2022-11-17T13:22:05.855Z,15.05
2022-11-17T13:24:36.160Z,17.83
2022-11-17T13:27:08.994Z,16.83
2022-11-17T13:29:35.941Z,15.00
2022-11-17T13:32:23.165Z,14.90
2022-11-17T13:34:59.906Z,15.65
2022-11-17T13:37:30.352Z,17.95
2022-11-17T13:40:15.746Z,14.65
2022-11-17T13:42:42.505Z,18.77
2022-11-17T13:45:14.940Z,14.15
2022-11-17T13:47:49.616Z,14.73
2022-11-17T13:50:32.320Z,17.40
2022-11-17T13:53:00.224Z,16.15
2022-11-17T13:55:27.911Z,16.92
2022-11-17T13:58:23.348Z,15.20
2022-11-17T14:00:54.467Z,14.60
2022-11-17T14:03:47.286Z,19.45
2022-11-17T14:06:14.419Z,17.83
2022-11-17T14:08:43.170Z,17.25
2022-11-17T14:11:09.755Z,19.58
2022-11-17T14:13:58.804Z,16.52
2022-11-17T14:16:28.937Z,16.88
2022-11-17T14:21:23.545Z,18.38
2022-11-17T14:24:00.104Z,18.13
2022-11-17T14:26:26.968Z,17.15
2022-11-17T14:28:53.843Z,19.98
2022-11-17T14:31:20.680Z,19.23
2022-11-17T14:33:47.491Z,17.58
2022-11-17T14:36:16.530Z,19.15
2022-11-17T14:38:44.838Z,20.75
2022-11-17T14:41:11.532Z,17.17
2022-11-17T14:43:38.163Z,18.73
2022-11-17T14:46:05.216Z,16.73
2022-11-17T14:48:31.892Z,19.73
2022-11-17T14:51:00.116Z,20.45
2022-11-17T14:53:27.254Z,19.23
2022-11-17T14:55:54.062Z,18.88
2022-11-17T14:58:20.846Z,21.58
2022-11-17T15:00:47.634Z,19.42
2022-11-17T15:03:14.381Z,21.35
2022-11-17T15:05:46.149Z,20.45
2022-11-17T15:08:13.324Z,20.38
2022-11-17T15:10:46.100Z,20.88
2022-11-17T15:13:12.736Z,21.20
2022-11-17T15:15:39.488Z,18.42
2022-11-17T15:18:06.531Z,20.60
2022-11-17T15:20:33.228Z,19.88
2022-11-17T15:23:03.183Z,18.45
2022-11-17T15:25:30.674Z,21.27
2022-11-17T15:27:57.405Z,20.33
2022-11-17T15:30:24.088Z,18.38
2022-11-17T15:32:50.743Z,18.70
2022-11-17T15:35:17.391Z,19.27
2022-11-17T15:37:43.981Z,19.75
2022-11-17T15:40:13.926Z,18.95
2022-11-17T15:42:43.050Z,24.23
2022-11-17T15:45:10.136Z,19.58
2022-11-17T15:47:36.722Z,22.65
2022-11-17T15:50:03.593Z,17.95
2022-11-17T15:52:56.657Z,19.25
2022-11-17T15:55:16.927Z,18.20
2022-11-17T15:57:43.534Z,18.95
2022-11-17T16:00:11.608Z,20.88
2022-11-17T16:02:40.917Z,18.80
2022-11-17T16:05:07.862Z,21.77
2022-11-17T16:07:34.596Z,21.67
2022-11-17T16:10:01.272Z,18.38
2022-11-17T16:12:27.887Z,20.63
2022-11-17T16:14:54.512Z,20.88
2022-11-17T16:17:21.105Z,20.75
2022-11-17T16:19:47.702Z,21.42
2022-11-17T16:22:14.347Z,21.83
2022-11-17T16:24:40.930Z,21.05
2022-11-17T16:27:07.518Z,21.83
2022-11-17T16:29:34.252Z,21.00
2022-11-17T16:32:00.857Z,22.50
2022-11-17T16:34:27.481Z,20.50
2022-11-17T16:36:54.082Z,20.00
2022-11-17T16:39:20.928Z,21.33
2022-11-17T16:41:50.238Z,20.67
2022-11-17T16:44:18.149Z,22.90
2022-11-17T16:46:47.253Z,23.52
2022-11-17T16:49:16.845Z,22.65
2022-11-17T16:51:48.357Z,24.05
2022-11-17T16:54:15.613Z,22.98
2022-11-17T16:56:42.404Z,25.02
2022-11-17T16:59:11.347Z,23.63
2022-11-17T17:01:38.640Z,22.38
2022-11-17T17:04:07.583Z,23.92
2022-11-17T17:06:37.114Z,24.95
2022-11-17T17:09:06.686Z,23.80
2022-11-17T17:11:35.688Z,24.02
2022-11-17T17:14:04.703Z,25.98
2022-11-17T17:16:33.420Z,25.00
2022-11-17T17:19:01.740Z,25.75
2022-11-17T17:21:29.554Z,26.88
2022-11-17T17:23:56.611Z,28.63
2022-11-17T17:26:26.875Z,26.30
2022-11-17T17:31:22.672Z,28.50
2022-11-17T17:33:50.769Z,28.15
2022-11-17T17:36:19.883Z,30.38
2022-11-17T17:38:50.285Z,32.10
2022-11-17T17:41:22.334Z,29.98
2022-11-17T17:44:04.307Z,28.80
2022-11-17T17:46:33.860Z,28.33
2022-11-17T17:49:00.707Z,29.98
2022-11-17T17:51:28.983Z,30.55
2022-11-17T17:53:58.258Z,27.27
2022-11-17T17:56:25.542Z,29.10
2022-11-17T17:58:54.937Z,32.70
2022-11-17T18:01:24.486Z,31.25
2022-11-17T18:03:53.696Z,34.58
2022-11-17T18:06:22.495Z,32.72
2022-11-17T18:08:49.925Z,34.33
2022-11-17T18:11:19.543Z,32.60
2022-11-17T18:13:48.446Z,29.27
2022-11-17T18:16:17.952Z,33.30
2022-11-17T18:18:47.749Z,29.65
2022-11-17T18:21:16.938Z,31.10
2022-11-17T18:23:43.908Z,30.47
2022-11-17T18:26:11.931Z,29.35
2022-11-17T18:28:39.543Z,29.15
2022-11-17T18:31:08.045Z,29.50
2022-11-17T18:33:35.299Z,31.15
2022-11-17T18:36:07.264Z,28.73
2022-11-17T18:38:36.027Z,26.60
2022-11-17T18:41:12.315Z,29.77
2022-11-17T18:43:39.131Z,26.17
2022-11-17T18:46:11.314Z,28.27
2022-11-17T18:48:39.968Z,25.05
2022-11-17T18:51:24.036Z,27.42
2022-11-17T18:53:52.228Z,27.58
2022-11-17T18:56:26.845Z,26.55
2022-11-17T18:58:53.590Z,28.35
2022-11-17T19:01:26.295Z,27.75
2022-11-17T19:03:54.794Z,27.83
2022-11-17T19:06:23.316Z,28.77
2022-11-17T19:08:50.744Z,32.95
2022-11-17T19:11:20.010Z,25.02
2022-11-17T19:13:46.975Z,29.73
2022-11-17T19:16:16.591Z,30.85
2022-11-17T19:18:44.630Z,31.48
2022-11-17T19:21:14.321Z,32.33
2022-11-17T19:23:47.999Z,29.50
2022-11-17T19:26:19.720Z,32.13
2022-11-17T19:28:46.536Z,32.13
2022-11-17T19:31:18.798Z,33.35
2022-11-17T19:33:47.063Z,30.95
2022-11-17T19:36:22.078Z,34.83
2022-11-17T19:38:53.099Z,34.15
2022-11-17T19:41:25.207Z,34.88
2022-11-17T19:43:56.264Z,38.17
2022-11-17T19:46:24.409Z,33.20
2022-11-17T19:48:51.066Z,35.15
2022-11-17T19:51:26.353Z,36.78
2022-11-17T19:53:54.955Z,36.83
2022-11-17T19:56:22.947Z,35.17
2022-11-17T19:58:50.313Z,38.08
2022-11-17T20:01:19.256Z,34.88
2022-11-17T20:03:46.622Z,35.78
2022-11-17T20:06:27.158Z,35.90
2022-11-17T20:08:55.163Z,37.65
2022-11-17T20:11:24.665Z,34.00
2022-11-17T20:13:51.445Z,35.28
2022-11-17T20:16:21.434Z,36.35
2022-11-17T20:18:53.460Z,36.65
2022-11-17T20:21:20.215Z,35.67
2022-11-17T20:23:47.254Z,35.53
2022-11-17T20:26:19.932Z,36.85
2022-11-17T20:28:47.866Z,34.08
2022-11-17T20:31:17.003Z,33.75
2022-11-17T20:33:43.792Z,33.85
2022-11-17T20:36:19.329Z,35.08
2022-11-17T20:38:50.126Z,34.03
2022-11-17T20:41:17.138Z,34.85
2022-11-17T20:43:48.296Z,30.90
2022-11-17T20:46:14.894Z,34.42
2022-11-17T20:48:41.696Z,34.40
2022-11-17T20:51:14.529Z,32.85
2022-11-17T20:53:41.453Z,32.95
2022-11-17T20:56:10.700Z,36.05
2022-11-17T20:58:37.742Z,29.87
2022-11-17T21:01:08.729Z,33.70
2022-11-17T21:03:35.519Z,36.30
2022-11-17T21:06:03.345Z,33.00
2022-11-17T21:08:32.265Z,32.45
2022-11-17T21:11:07.354Z,32.80
2022-11-17T21:13:35.121Z,31.95
2022-11-17T21:16:03.915Z,30.75
2022-11-17T21:18:30.630Z,30.20
2022-11-17T21:21:00.419Z,33.03
2022-11-17T21:23:27.796Z,30.42
2022-11-17T21:25:54.428Z,30.30
2022-11-17T21:28:21.147Z,31.77
2022-11-17T21:30:47.812Z,31.30
2022-11-17T21:33:14.458Z,32.88
2022-11-17T21:35:41.091Z,30.60
2022-11-17T21:38:08.868Z,32.05
2022-11-17T21:40:35.518Z,31.30
2022-11-17T21:43:02.208Z,33.53
2022-11-17T21:45:28.829Z,31.23
2022-11-17T21:47:59.421Z,33.55
2022-11-17T21:50:26.503Z,33.20
2022-11-17T21:52:53.077Z,32.78
2022-11-17T21:55:19.793Z,33.05
2022-11-17T21:57:50.131Z,33.42
2022-11-17T22:00:17.861Z,31.88
2022-11-17T22:02:44.482Z,35.88
2022-11-17T22:05:11.480Z,33.05
2022-11-17T22:07:38.103Z,35.88
2022-11-17T22:10:05.339Z,32.08
2022-11-17T22:12:31.916Z,34.50
2022-11-17T22:14:58.545Z,34.50
2022-11-17T22:17:25.206Z,35.92
2022-11-17T22:19:51.826Z,34.78
2022-11-17T22:22:18.436Z,36.85
2022-11-17T22:24:49.592Z,37.80
2022-11-17T22:27:16.501Z,36.88
2022-11-17T22:29:43.150Z,33.78
2022-11-17T22:32:09.788Z,38.38
2022-11-17T22:34:36.399Z,39.58
2022-11-17T22:37:02.998Z,39.88
2022-11-17T22:39:29.721Z,37.30
2022-11-17T22:41:56.310Z,35.88
2022-11-17T22:44:22.929Z,40.13
2022-11-17T22:46:49.568Z,39.25
2022-11-17T22:49:16.352Z,42.38
2022-11-17T22:52:01.937Z,45.35
2022-11-17T22:54:28.783Z,38.65
2022-11-17T22:56:55.387Z,39.08
2022-11-17T22:59:25.752Z,41.35
2022-11-17T23:01:52.512Z,39.45
2022-11-17T23:04:19.500Z,39.63
2022-11-17T23:06:46.283Z,44.72
2022-11-17T23:09:13.439Z,41.05
2022-11-17T23:11:40.192Z,41.38
2022-11-17T23:14:09.621Z,38.95
2022-11-17T23:16:37.407Z,37.75
2022-11-17T23:19:05.263Z,41.05
2022-11-17T23:21:32.157Z,41.28
2022-11-17T23:23:58.917Z,40.72
2022-11-17T23:26:25.542Z,43.45
2022-11-17T23:28:52.331Z,41.30
2022-11-17T23:31:21.371Z,40.50
2022-11-17T23:33:48.620Z,41.45
2022-11-17T23:36:21.243Z,41.28
2022-11-17T23:38:49.050Z,46.15
2022-11-17T23:41:19.155Z,42.50
2022-11-17T23:43:45.900Z,41.28
2022-11-17T23:46:14.997Z,40.42
2022-11-17T23:48:42.588Z,40.83
2022-11-17T23:51:14.523Z,40.38
2022-11-17T23:53:41.280Z,42.25
2022-11-17T23:56:08.651Z,41.58
2022-11-17T23:58:35.807Z,45.47
